sensor_id;sensor_type;location;lat;lon;timestamp;pressure;altitude;pressure_sealevel;temperature;humidity
62600;BME280;48671;48.922;2.346;2024-01-30T00:01:13;102502.25;;;14.81;57.10
62600;BME280;48671;48.922;2.346;2024-01-30T00:03:38;102459.25;;;14.57;57.26
62600;BME280;48671;48.922;2.346;2024-01-30T00:06:03;102507.41;;;14.84;57.19
62600;BME280;48671;48.922;2.346;2024-01-30T00:08:29;102480.97;;;14.62;57.58
62600;BME280;48671;48.922;2.346;2024-01-30T00:10:54;102455.03;;;14.52;57.33
62600;BME280;48671;48.922;2.346;2024-01-30T00:13:19;102470.56;;;14.59;57.33
62600;BME280;48671;48.922;2.346;2024-01-30T00:15:45;102466.28;;;14.55;57.39
62600;BME280;48671;48.922;2.346;2024-01-30T00:18:10;102454.41;;;14.41;57.27
62600;BME280;48671;48.922;2.346;2024-01-30T00:20:36;102453.47;;;14.44;57.75
62600;BME280;48671;48.922;2.346;2024-01-30T00:23:01;102455.25;;;14.42;57.77
62600;BME280;48671;48.922;2.346;2024-01-30T00:25:26;102474.34;;;14.47;57.70
62600;BME280;48671;48.922;2.346;2024-01-30T00:27:52;102495.78;;;14.63;57.49
62600;BME280;48671;48.922;2.346;2024-01-30T00:30:17;102495.88;;;14.58;57.74
62600;BME280;48671;48.922;2.346;2024-01-30T00:32:43;102494.16;;;14.59;57.82
62600;BME280;48671;48.922;2.346;2024-01-30T00:35:08;102478.59;;;14.52;57.55
62600;BME280;48671;48.922;2.346;2024-01-30T00:37:35;102492.25;;;14.64;57.74
62600;BME280;48671;48.922;2.346;2024-01-30T00:40:00;102503.50;;;14.67;57.69
62600;BME280;48671;48.922;2.346;2024-01-30T00:42:26;102496.47;;;14.69;57.72
62600;BME280;48671;48.922;2.346;2024-01-30T00:44:51;102510.19;;;14.78;57.72
62600;BME280;48671;48.922;2.346;2024-01-30T00:47:16;102496.53;;;14.66;57.35
62600;BME280;48671;48.922;2.346;2024-01-30T00:49:42;102513.03;;;14.70;57.74
62600;BME280;48671;48.922;2.346;2024-01-30T00:52:07;102518.34;;;14.68;57.68
62600;BME280;48671;48.922;2.346;2024-01-30T00:54:33;102510.59;;;14.64;57.80
62600;BME280;48671;48.922;2.346;2024-01-30T00:56:58;102502.88;;;14.58;57.48
62600;BME280;48671;48.922;2.346;2024-01-30T00:59:23;102520.06;;;14.68;57.38
62600;BME280;48671;48.922;2.346;2024-01-30T01:01:48;102517.59;;;14.63;58.16
62600;BME280;48671;48.922;2.346;2024-01-30T01:04:14;102464.94;;;14.40;57.49
62600;BME280;48671;48.922;2.346;2024-01-30T01:06:40;102465.03;;;14.35;57.65
62600;BME280;48671;48.922;2.346;2024-01-30T01:09:07;102508.81;;;14.64;57.98
62600;BME280;48671;48.922;2.346;2024-01-30T01:11:33;102508.97;;;14.58;57.80
62600;BME280;48671;48.922;2.346;2024-01-30T01:13:58;102482.13;;;14.48;57.87
62600;BME280;48671;48.922;2.346;2024-01-30T01:16:23;102500.97;;;14.64;57.94
62600;BME280;48671;48.922;2.346;2024-01-30T01:18:48;102485.41;;;14.58;57.68
62600;BME280;48671;48.922;2.346;2024-01-30T01:21:14;102500.94;;;14.66;57.98
62600;BME280;48671;48.922;2.346;2024-01-30T01:23:39;102477.75;;;14.50;57.84
62600;BME280;48671;48.922;2.346;2024-01-30T01:26:04;102470.75;;;14.51;57.68
62600;BME280;48671;48.922;2.346;2024-01-30T01:28:30;102466.56;;;14.44;58.16
62600;BME280;48671;48.922;2.346;2024-01-30T01:30:56;102481.06;;;14.59;58.10
62600;BME280;48671;48.922;2.346;2024-01-30T01:33:24;102492.41;;;14.58;57.97
62600;BME280;48671;48.922;2.346;2024-01-30T01:35:49;102460.59;;;14.39;58.54
62600;BME280;48671;48.922;2.346;2024-01-30T01:38:15;102483.09;;;14.46;58.43
62600;BME280;48671;48.922;2.346;2024-01-30T01:40:40;102489.00;;;14.56;58.28
62600;BME280;48671;48.922;2.346;2024-01-30T01:43:06;102483.88;;;14.49;58.58
62600;BME280;48671;48.922;2.346;2024-01-30T01:45:31;102480.44;;;14.47;58.22
62600;BME280;48671;48.922;2.346;2024-01-30T01:47:57;102487.38;;;14.48;58.10
62600;BME280;48671;48.922;2.346;2024-01-30T01:50:22;102480.34;;;14.52;58.14
62600;BME280;48671;48.922;2.346;2024-01-30T01:52:48;102491.72;;;14.51;58.40
62600;BME280;48671;48.922;2.346;2024-01-30T01:55:16;102511.78;;;14.52;58.51
62600;BME280;48671;48.922;2.346;2024-01-30T01:57:43;102485.03;;;14.39;58.66
62600;BME280;48671;48.922;2.346;2024-01-30T02:00:09;102491.00;;;14.44;58.78
62600;BME280;48671;48.922;2.346;2024-01-30T02:02:36;102471.09;;;14.37;58.34
62600;BME280;48671;48.922;2.346;2024-01-30T02:05:02;102498.63;;;14.54;58.76
62600;BME280;48671;48.922;2.346;2024-01-30T02:07:28;102489.19;;;14.46;58.72
62600;BME280;48671;48.922;2.346;2024-01-30T02:09:54;102467.72;;;14.32;58.41
62600;BME280;48671;48.922;2.346;2024-01-30T02:12:20;102506.41;;;14.57;58.39
62600;BME280;48671;48.922;2.346;2024-01-30T02:14:46;102501.34;;;14.49;58.54
62600;BME280;48671;48.922;2.346;2024-01-30T02:17:13;102491.81;;;14.46;58.60
62600;BME280;48671;48.922;2.346;2024-01-30T02:19:39;102495.38;;;14.44;58.84
62600;BME280;48671;48.922;2.346;2024-01-30T02:22:05;102501.22;;;14.55;58.41
62600;BME280;48671;48.922;2.346;2024-01-30T02:24:30;102487.56;;;14.42;58.76
62600;BME280;48671;48.922;2.346;2024-01-30T02:26:56;102484.94;;;14.42;58.76
62600;BME280;48671;48.922;2.346;2024-01-30T02:29:21;102465.03;;;14.35;58.74
62600;BME280;48671;48.922;2.346;2024-01-30T02:31:47;102494.31;;;14.52;59.16
62600;BME280;48671;48.922;2.346;2024-01-30T02:34:12;102452.00;;;14.34;58.80
62600;BME280;48671;48.922;2.346;2024-01-30T02:36:37;102470.81;;;14.48;58.83
62600;BME280;48671;48.922;2.346;2024-01-30T02:39:03;102480.16;;;14.58;58.77
62600;BME280;48671;48.922;2.346;2024-01-30T02:41:28;102446.72;;;14.35;59.22
62600;BME280;48671;48.922;2.346;2024-01-30T02:43:54;102454.66;;;14.32;59.70
62600;BME280;48671;48.922;2.346;2024-01-30T02:46:19;102470.28;;;14.35;59.46
62600;BME280;48671;48.922;2.346;2024-01-30T02:48:44;102483.91;;;14.48;59.40
62600;BME280;48671;48.922;2.346;2024-01-30T02:51:10;102497.81;;;14.51;59.43
62600;BME280;48671;48.922;2.346;2024-01-30T02:53:35;102478.06;;;14.38;59.79
62600;BME280;48671;48.922;2.346;2024-01-30T02:56:02;102479.66;;;14.44;59.72
62600;BME280;48671;48.922;2.346;2024-01-30T02:58:27;102472.03;;;14.35;59.74
62600;BME280;48671;48.922;2.346;2024-01-30T03:00:53;102466.81;;;14.35;60.24
62600;BME280;48671;48.922;2.346;2024-01-30T03:03:18;102461.47;;;14.38;60.09
62600;BME280;48671;48.922;2.346;2024-01-30T03:05:43;102462.22;;;14.43;59.99
62600;BME280;48671;48.922;2.346;2024-01-30T03:08:09;102461.47;;;14.39;60.25
62600;BME280;48671;48.922;2.346;2024-01-30T03:10:34;102462.31;;;14.40;59.90
62600;BME280;48671;48.922;2.346;2024-01-30T03:12:59;102428.97;;;14.14;60.10
62600;BME280;48671;48.922;2.346;2024-01-30T03:15:24;102497.16;;;14.42;60.22
62600;BME280;48671;48.922;2.346;2024-01-30T03:17:50;102485.91;;;14.38;60.07
62600;BME280;48671;48.922;2.346;2024-01-30T03:20:15;102484.97;;;14.41;60.57
62600;BME280;48671;48.922;2.346;2024-01-30T03:22:41;102476.22;;;14.42;60.79
62600;BME280;48671;48.922;2.346;2024-01-30T03:25:06;102476.22;;;14.42;60.53
62600;BME280;48671;48.922;2.346;2024-01-30T03:27:32;102464.09;;;14.39;60.34
62600;BME280;48671;48.922;2.346;2024-01-30T03:29:57;102463.00;;;14.46;60.47
62600;BME280;48671;48.922;2.346;2024-01-30T03:32:22;102480.41;;;14.49;60.28
62600;BME280;48671;48.922;2.346;2024-01-30T03:34:47;102470.53;;;14.26;60.70
62600;BME280;48671;48.922;2.346;2024-01-30T03:37:13;102491.06;;;14.41;60.84
62600;BME280;48671;48.922;2.346;2024-01-30T03:39:38;102489.34;;;14.40;60.79
62600;BME280;48671;48.922;2.346;2024-01-30T03:42:04;102486.66;;;14.43;60.63
62600;BME280;48671;48.922;2.346;2024-01-30T03:44:29;102484.88;;;14.45;60.55
62600;BME280;48671;48.922;2.346;2024-01-30T03:46:54;102474.72;;;14.33;61.50
62600;BME280;48671;48.922;2.346;2024-01-30T03:49:20;102482.56;;;14.33;61.73
62600;BME280;48671;48.922;2.346;2024-01-30T03:51:45;102468.69;;;14.29;61.53
62600;BME280;48671;48.922;2.346;2024-01-30T03:54:12;102473.97;;;14.28;62.17
62600;BME280;48671;48.922;2.346;2024-01-30T03:56:37;102477.34;;;14.33;61.28
62600;BME280;48671;48.922;2.346;2024-01-30T03:59:03;102456.47;;;14.30;60.94
62600;BME280;48671;48.922;2.346;2024-01-30T04:01:28;102477.94;;;14.43;61.54
62600;BME280;48671;48.922;2.346;2024-01-30T04:03:53;102452.06;;;14.31;61.28
62600;BME280;48671;48.922;2.346;2024-01-30T04:06:19;102467.41;;;14.44;60.99
62600;BME280;48671;48.922;2.346;2024-01-30T04:08:44;102464.19;;;14.35;61.03
62600;BME280;48671;48.922;2.346;2024-01-30T04:11:10;102468.78;;;14.26;61.94
62600;BME280;48671;48.922;2.346;2024-01-30T04:13:35;102479.25;;;14.26;62.21
62600;BME280;48671;48.922;2.346;2024-01-30T04:16:01;102466.47;;;14.14;61.56
62600;BME280;48671;48.922;2.346;2024-01-30T04:18:28;102475.94;;;14.18;61.62
62600;BME280;48671;48.922;2.346;2024-01-30T04:20:53;102473.41;;;14.15;62.10
62600;BME280;48671;48.922;2.346;2024-01-30T04:23:19;102456.94;;;14.12;62.02
62600;BME280;48671;48.922;2.346;2024-01-30T04:25:44;102474.16;;;14.20;61.88
62600;BME280;48671;48.922;2.346;2024-01-30T04:28:10;102474.13;;;14.22;61.89
62600;BME280;48671;48.922;2.346;2024-01-30T04:30:37;102452.59;;;14.11;61.49
62600;BME280;48671;48.922;2.346;2024-01-30T04:33:03;102465.53;;;14.17;61.59
62600;BME280;48671;48.922;2.346;2024-01-30T04:35:28;102465.47;;;14.20;61.70
62600;BME280;48671;48.922;2.346;2024-01-30T04:37:54;102453.44;;;14.13;61.72
62600;BME280;48671;48.922;2.346;2024-01-30T04:40:20;102449.91;;;14.14;61.68
62600;BME280;48671;48.922;2.346;2024-01-30T04:42:46;102423.19;;;14.01;61.93
62600;BME280;48671;48.922;2.346;2024-01-30T04:45:11;102463.63;;;14.22;61.84
62600;BME280;48671;48.922;2.346;2024-01-30T04:47:37;102481.72;;;14.31;61.93
62600;BME280;48671;48.922;2.346;2024-01-30T04:50:04;102475.81;;;14.24;62.09
62600;BME280;48671;48.922;2.346;2024-01-30T04:52:30;102457.63;;;14.18;61.79
62600;BME280;48671;48.922;2.346;2024-01-30T04:54:55;102484.44;;;14.28;61.79
62600;BME280;48671;48.922;2.346;2024-01-30T04:57:20;102487.91;;;14.28;61.90
62600;BME280;48671;48.922;2.346;2024-01-30T04:59:46;102491.50;;;14.26;61.96
62600;BME280;48671;48.922;2.346;2024-01-30T05:02:11;102495.88;;;14.24;61.91
62600;BME280;48671;48.922;2.346;2024-01-30T05:04:36;102494.19;;;14.21;62.15
62600;BME280;48671;48.922;2.346;2024-01-30T05:07:02;102490.09;;;14.13;62.28
62600;BME280;48671;48.922;2.346;2024-01-30T05:09:27;102497.03;;;14.14;62.52
62600;BME280;48671;48.922;2.346;2024-01-30T05:11:53;102497.03;;;14.14;62.38
62600;BME280;48671;48.922;2.346;2024-01-30T05:14:18;102478.16;;;14.01;62.37
62600;BME280;48671;48.922;2.346;2024-01-30T05:16:44;102495.31;;;14.13;62.12
62600;BME280;48671;48.922;2.346;2024-01-30T05:19:13;102499.66;;;14.12;62.27
62600;BME280;48671;48.922;2.346;2024-01-30T05:21:38;102482.44;;;14.03;62.29
62600;BME280;48671;48.922;2.346;2024-01-30T05:24:04;102488.41;;;14.09;62.16
62600;BME280;48671;48.922;2.346;2024-01-30T05:26:29;102496.34;;;14.05;61.80
62600;BME280;48671;48.922;2.346;2024-01-30T05:28:55;102517.91;;;14.17;62.17
62600;BME280;48671;48.922;2.346;2024-01-30T05:31:20;102486.84;;;14.03;62.08
62600;BME280;48671;48.922;2.346;2024-01-30T05:33:46;102483.34;;;14.02;62.19
62600;BME280;48671;48.922;2.346;2024-01-30T05:36:12;102487.72;;;14.02;62.71
62600;BME280;48671;48.922;2.346;2024-01-30T05:38:38;102531.63;;;14.25;62.86
62600;BME280;48671;48.922;2.346;2024-01-30T05:41:04;102503.19;;;14.11;63.22
62600;BME280;48671;48.922;2.346;2024-01-30T05:43:29;102505.09;;;14.06;63.65
62600;BME280;48671;48.922;2.346;2024-01-30T05:45:54;102494.59;;;14.06;63.80
62600;BME280;48671;48.922;2.346;2024-01-30T05:48:20;102533.41;;;14.24;63.52
62600;BME280;48671;48.922;2.346;2024-01-30T05:50:46;102540.31;;;14.27;63.50
62600;BME280;48671;48.922;2.346;2024-01-30T05:53:11;102541.16;;;14.29;63.49
62600;BME280;48671;48.922;2.346;2024-01-30T05:55:37;102539.47;;;14.26;63.49
62600;BME280;48671;48.922;2.346;2024-01-30T05:58:02;102527.38;;;14.21;63.40
62600;BME280;48671;48.922;2.346;2024-01-30T06:00:29;102537.66;;;14.28;63.19
62600;BME280;48671;48.922;2.346;2024-01-30T06:02:54;102550.53;;;14.38;63.29
62600;BME280;48671;48.922;2.346;2024-01-30T06:05:19;102501.41;;;14.13;63.34
62600;BME280;48671;48.922;2.346;2024-01-30T06:07:44;102542.66;;;14.38;63.17
62600;BME280;48671;48.922;2.346;2024-01-30T06:10:10;102540.97;;;14.35;63.23
62600;BME280;48671;48.922;2.346;2024-01-30T06:12:35;102554.69;;;14.45;62.95
62600;BME280;48671;48.922;2.346;2024-01-30T06:15:01;102545.09;;;14.45;62.90
62600;BME280;48671;48.922;2.346;2024-01-30T06:17:27;102557.25;;;14.48;62.84
62600;BME280;48671;48.922;2.346;2024-01-30T06:19:52;102551.38;;;14.38;62.95
62600;BME280;48671;48.922;2.346;2024-01-30T06:22:18;102554.69;;;14.45;62.53
62600;BME280;48671;48.922;2.346;2024-01-30T06:24:43;102547.91;;;14.38;62.70
62600;BME280;48671;48.922;2.346;2024-01-30T06:27:10;102566.00;;;14.47;63.13
62600;BME280;48671;48.922;2.346;2024-01-30T06:29:35;102518.69;;;14.19;62.72
62600;BME280;48671;48.922;2.346;2024-01-30T06:32:01;102567.69;;;14.49;63.41
62600;BME280;48671;48.922;2.346;2024-01-30T06:34:26;102544.47;;;14.36;62.91
62600;BME280;48671;48.922;2.346;2024-01-30T06:36:52;102587.69;;;14.54;63.00
62600;BME280;48671;48.922;2.346;2024-01-30T06:39:17;102569.56;;;14.44;62.90
62600;BME280;48671;48.922;2.346;2024-01-30T06:41:43;102570.38;;;14.46;62.83
62600;BME280;48671;48.922;2.346;2024-01-30T06:44:08;102581.63;;;14.51;62.62
62600;BME280;48671;48.922;2.346;2024-01-30T06:46:35;102566.81;;;14.50;62.48
62600;BME280;48671;48.922;2.346;2024-01-30T06:49:00;102568.53;;;14.51;62.55
62600;BME280;48671;48.922;2.346;2024-01-30T06:51:26;102533.31;;;14.29;62.87
62600;BME280;48671;48.922;2.346;2024-01-30T06:53:51;102570.22;;;14.54;63.06
62600;BME280;48671;48.922;2.346;2024-01-30T06:56:17;102558.44;;;14.36;62.58
62600;BME280;48671;48.922;2.346;2024-01-30T06:58:49;102597.13;;;14.61;62.54
62600;BME280;48671;48.922;2.346;2024-01-30T07:01:15;102590.09;;;14.63;62.93
62600;BME280;48671;48.922;2.346;2024-01-30T07:03:41;102577.09;;;14.58;62.80
62600;BME280;48671;48.922;2.346;2024-01-30T07:06:07;102585.78;;;14.60;62.58
62600;BME280;48671;48.922;2.346;2024-01-30T07:08:32;102566.75;;;14.54;62.59
62600;BME280;48671;48.922;2.346;2024-01-30T07:10:58;102579.59;;;14.63;62.60
62600;BME280;48671;48.922;2.346;2024-01-30T07:13:23;102578.69;;;14.65;62.79
62600;BME280;48671;48.922;2.346;2024-01-30T07:15:49;102598.66;;;14.69;62.69
62600;BME280;48671;48.922;2.346;2024-01-30T07:18:14;102577.97;;;14.59;62.62
62600;BME280;48671;48.922;2.346;2024-01-30T07:20:40;102570.13;;;14.57;62.37
62600;BME280;48671;48.922;2.346;2024-01-30T07:23:15;102617.56;;;14.81;62.79
62600;BME280;48671;48.922;2.346;2024-01-30T07:25:41;102580.50;;;14.62;62.76
62600;BME280;48671;48.922;2.346;2024-01-30T07:28:08;102605.56;;;14.72;62.78
62600;BME280;48671;48.922;2.346;2024-01-30T07:30:35;102590.09;;;14.63;62.69
62600;BME280;48671;48.922;2.346;2024-01-30T07:33:00;102622.72;;;14.84;62.90
62600;BME280;48671;48.922;2.346;2024-01-30T07:35:25;102574.44;;;14.60;62.81
62600;BME280;48671;48.922;2.346;2024-01-30T07:37:51;102605.59;;;14.70;62.78
62600;BME280;48671;48.922;2.346;2024-01-30T07:40:17;102632.19;;;14.89;62.66
62600;BME280;48671;48.922;2.346;2024-01-30T07:42:42;102610.75;;;14.75;63.03
62600;BME280;48671;48.922;2.346;2024-01-30T07:45:08;102649.59;;;14.92;62.92
62600;BME280;48671;48.922;2.346;2024-01-30T07:47:33;102627.16;;;14.82;62.68
62600;BME280;48671;48.922;2.346;2024-01-30T07:49:59;102631.56;;;14.80;63.20
62600;BME280;48671;48.922;2.346;2024-01-30T07:52:24;102620.38;;;14.73;62.73
62600;BME280;48671;48.922;2.346;2024-01-30T07:54:50;102621.22;;;14.75;63.08
62600;BME280;48671;48.922;2.346;2024-01-30T07:57:16;102649.75;;;14.86;63.20
62600;BME280;48671;48.922;2.346;2024-01-30T07:59:43;102630.91;;;14.71;63.88
62600;BME280;48671;48.922;2.346;2024-01-30T08:02:13;102651.53;;;14.84;63.16
62600;BME280;48671;48.922;2.346;2024-01-30T08:04:39;102663.56;;;14.92;63.34
62600;BME280;48671;48.922;2.346;2024-01-30T08:07:04;102649.84;;;14.81;62.97
62600;BME280;48671;48.922;2.346;2024-01-30T08:09:30;102642.19;;;14.73;62.84
62600;BME280;48671;48.922;2.346;2024-01-30T08:11:55;102676.66;;;14.92;63.31
62600;BME280;48671;48.922;2.346;2024-01-30T08:14:20;102680.22;;;14.90;63.06
62600;BME280;48671;48.922;2.346;2024-01-30T08:16:46;102669.88;;;14.84;63.08
62600;BME280;48671;48.922;2.346;2024-01-30T08:19:11;102680.28;;;14.88;63.10
62600;BME280;48671;48.922;2.346;2024-01-30T08:21:37;102684.66;;;14.88;63.02
62600;BME280;48671;48.922;2.346;2024-01-30T08:24:05;102685.66;;;14.82;63.65
62600;BME280;48671;48.922;2.346;2024-01-30T08:26:31;102684.84;;;14.80;63.88
62600;BME280;48671;48.922;2.346;2024-01-30T08:28:57;102699.47;;;14.89;63.42
62600;BME280;48671;48.922;2.346;2024-01-30T08:31:22;102677.81;;;14.81;63.65
62600;BME280;48671;48.922;2.346;2024-01-30T08:33:48;102676.25;;;14.75;63.56
62600;BME280;48671;48.922;2.346;2024-01-30T08:36:13;102704.03;;;14.81;63.79
62600;BME280;48671;48.922;2.346;2024-01-30T08:38:38;102709.28;;;14.81;63.76
62600;BME280;48671;48.922;2.346;2024-01-30T08:41:04;102672.22;;;14.62;63.43
62600;BME280;48671;48.922;2.346;2024-01-30T08:43:30;102706.56;;;14.84;63.98
62600;BME280;48671;48.922;2.346;2024-01-30T08:45:55;102705.84;;;14.79;64.37
62600;BME280;48671;48.922;2.346;2024-01-30T08:48:23;102713.59;;;14.83;64.70
62600;BME280;48671;48.922;2.346;2024-01-30T08:50:50;102723.13;;;14.86;63.95
62600;BME280;48671;48.922;2.346;2024-01-30T08:53:15;102715.28;;;14.84;64.01
62600;BME280;48671;48.922;2.346;2024-01-30T08:55:40;102723.97;;;14.88;63.95
62600;BME280;48671;48.922;2.346;2024-01-30T08:58:06;102706.81;;;14.74;64.03
62600;BME280;48671;48.922;2.346;2024-01-30T09:00:31;102745.78;;;14.88;63.95
62600;BME280;48671;48.922;2.346;2024-01-30T09:02:56;102732.69;;;14.88;63.54
62600;BME280;48671;48.922;2.346;2024-01-30T09:05:22;102727.47;;;14.87;63.98
62600;BME280;48671;48.922;2.346;2024-01-30T09:07:47;102730.03;;;14.90;63.86
62600;BME280;48671;48.922;2.346;2024-01-30T09:10:12;102724.78;;;14.90;63.62
62600;BME280;48671;48.922;2.346;2024-01-30T09:12:37;102725.69;;;14.89;63.57
62600;BME280;48671;48.922;2.346;2024-01-30T09:15:03;102730.88;;;14.90;63.98
62600;BME280;48671;48.922;2.346;2024-01-30T09:17:29;102736.09;;;14.92;63.77
62600;BME280;48671;48.922;2.346;2024-01-30T09:19:55;102739.56;;;14.92;64.02
62600;BME280;48671;48.922;2.346;2024-01-30T09:22:20;102751.13;;;14.85;63.78
62600;BME280;48671;48.922;2.346;2024-01-30T09:24:45;102762.31;;;14.90;64.46
62600;BME280;48671;48.922;2.346;2024-01-30T09:27:11;102705.44;;;14.60;64.32
62600;BME280;48671;48.922;2.346;2024-01-30T09:29:36;102741.84;;;14.70;64.15
62600;BME280;48671;48.922;2.346;2024-01-30T09:32:01;102768.81;;;14.75;64.16
62600;BME280;48671;48.922;2.346;2024-01-30T09:34:27;102749.81;;;14.66;64.42
62600;BME280;48671;48.922;2.346;2024-01-30T09:36:52;102740.41;;;14.57;65.15
62600;BME280;48671;48.922;2.346;2024-01-30T09:39:17;102756.81;;;14.65;64.52
62600;BME280;48671;48.922;2.346;2024-01-30T09:41:49;102774.84;;;14.78;64.76
62600;BME280;48671;48.922;2.346;2024-01-30T09:44:20;102754.13;;;14.68;64.66
62600;BME280;48671;48.922;2.346;2024-01-30T09:46:47;102758.56;;;14.65;64.74
62600;BME280;48671;48.922;2.346;2024-01-30T09:49:13;102781.00;;;14.78;64.05
62600;BME280;48671;48.922;2.346;2024-01-30T09:51:39;102750.81;;;14.60;64.46
62600;BME280;48671;48.922;2.346;2024-01-30T09:54:07;102753.41;;;14.62;64.32
62600;BME280;48671;48.922;2.346;2024-01-30T09:56:33;102789.50;;;14.88;63.89
62600;BME280;48671;48.922;2.346;2024-01-30T09:58:58;102768.88;;;14.72;64.17
62600;BME280;48671;48.922;2.346;2024-01-30T10:01:25;102755.78;;;14.72;63.97
62600;BME280;48671;48.922;2.346;2024-01-30T10:03:51;102760.09;;;14.75;63.91
62600;BME280;48671;48.922;2.346;2024-01-30T10:06:19;102770.50;;;14.78;64.16
62600;BME280;48671;48.922;2.346;2024-01-30T10:08:46;102800.69;;;14.94;64.07
62600;BME280;48671;48.922;2.346;2024-01-30T10:11:11;102748.97;;;14.64;63.80
62600;BME280;48671;48.922;2.346;2024-01-30T10:13:38;102804.25;;;14.92;64.01
62600;BME280;48671;48.922;2.346;2024-01-30T10:16:04;102800.66;;;14.96;63.93
62600;BME280;48671;48.922;2.346;2024-01-30T10:18:31;102792.97;;;14.88;63.76
62600;BME280;48671;48.922;2.346;2024-01-30T10:20:57;102792.91;;;14.90;63.65
62600;BME280;48671;48.922;2.346;2024-01-30T10:23:22;102800.66;;;14.96;63.41
62600;BME280;48671;48.922;2.346;2024-01-30T10:25:47;102797.25;;;14.91;63.66
62600;BME280;48671;48.922;2.346;2024-01-30T10:28:13;102815.31;;;15.05;63.33
62600;BME280;48671;48.922;2.346;2024-01-30T10:30:38;102786.97;;;14.83;63.50
62600;BME280;48671;48.922;2.346;2024-01-30T10:33:04;102821.28;;;15.10;63.37
62600;BME280;48671;48.922;2.346;2024-01-30T10:35:29;102816.81;;;15.13;62.97
62600;BME280;48671;48.922;2.346;2024-01-30T10:37:56;102816.09;;;15.07;62.95
62600;BME280;48671;48.922;2.346;2024-01-30T10:40:27;102813.47;;;15.08;62.62
62600;BME280;48671;48.922;2.346;2024-01-30T10:42:55;102793.72;;;14.93;62.18
62600;BME280;48671;48.922;2.346;2024-01-30T10:45:21;102808.28;;;15.05;62.38
62600;BME280;48671;48.922;2.346;2024-01-30T10:47:53;102812.56;;;15.09;62.17
62600;BME280;48671;48.922;2.346;2024-01-30T10:50:18;102818.72;;;15.08;62.28
62600;BME280;48671;48.922;2.346;2024-01-30T10:52:45;102829.06;;;15.13;62.37
62600;BME280;48671;48.922;2.346;2024-01-30T10:55:12;102833.25;;;15.20;62.24
62600;BME280;48671;48.922;2.346;2024-01-30T10:57:39;102830.63;;;15.21;62.08
62600;BME280;48671;48.922;2.346;2024-01-30T11:00:09;102830.56;;;15.23;61.97
62600;BME280;48671;48.922;2.346;2024-01-30T11:02:40;102814.25;;;15.12;62.00
62600;BME280;48671;48.922;2.346;2024-01-30T11:05:06;102808.16;;;15.10;61.82
62600;BME280;48671;48.922;2.346;2024-01-30T11:07:31;102840.13;;;15.27;61.87
62600;BME280;48671;48.922;2.346;2024-01-30T11:10:00;102846.22;;;15.26;61.63
62600;BME280;48671;48.922;2.346;2024-01-30T11:12:30;102845.53;;;15.19;61.39
62600;BME280;48671;48.922;2.346;2024-01-30T11:15:06;102841.97;;;15.22;61.73
62600;BME280;48671;48.922;2.346;2024-01-30T11:17:52;102852.59;;;15.17;61.77
62600;BME280;48671;48.922;2.346;2024-01-30T11:20:22;102849.25;;;15.11;61.98
62600;BME280;48671;48.922;2.346;2024-01-30T11:22:51;102843.16;;;15.09;61.53
62600;BME280;48671;48.922;2.346;2024-01-30T11:25:18;102856.06;;;15.18;61.61
62600;BME280;48671;48.922;2.346;2024-01-30T11:27:45;102845.06;;;15.02;61.50
62600;BME280;48671;48.922;2.346;2024-01-30T11:30:24;102858.84;;;15.10;61.59
62600;BME280;48671;48.922;2.346;2024-01-30T11:35:31;102835.56;;;14.96;61.42
62600;BME280;48671;48.922;2.346;2024-01-30T11:37:58;102851.03;;;15.09;60.92
62600;BME280;48671;48.922;2.346;2024-01-30T11:40:28;102845.81;;;15.07;60.99
62600;BME280;48671;48.922;2.346;2024-01-30T11:42:56;102846.84;;;15.00;60.82
62600;BME280;48671;48.922;2.346;2024-01-30T11:45:21;102839.97;;;14.96;61.08
62600;BME280;48671;48.922;2.346;2024-01-30T11:47:47;102833.75;;;15.00;61.10
62600;BME280;48671;48.922;2.346;2024-01-30T11:50:13;102869.03;;;15.24;60.93
62600;BME280;48671;48.922;2.346;2024-01-30T11:52:39;102850.03;;;15.14;60.36
62600;BME280;48671;48.922;2.346;2024-01-30T11:55:05;102836.09;;;15.12;60.48
62600;BME280;48671;48.922;2.346;2024-01-30T11:57:30;102860.13;;;15.30;60.43
62600;BME280;48671;48.922;2.346;2024-01-30T11:59:56;102840.34;;;15.16;60.01
62600;BME280;48671;48.922;2.346;2024-01-30T12:02:21;102856.78;;;15.25;59.71
62600;BME280;48671;48.922;2.346;2024-01-30T12:04:47;102863.84;;;15.21;60.19
62600;BME280;48671;48.922;2.346;2024-01-30T12:07:12;102837.22;;;15.02;60.01
62600;BME280;48671;48.922;2.346;2024-01-30T12:09:41;102858.69;;;15.18;59.89
62600;BME280;48671;48.922;2.346;2024-01-30T12:12:07;102863.03;;;15.19;59.59
62600;BME280;48671;48.922;2.346;2024-01-30T12:14:38;102862.31;;;15.12;59.79
62600;BME280;48671;48.922;2.346;2024-01-30T12:17:04;102856.22;;;15.10;59.73
62600;BME280;48671;48.922;2.346;2024-01-30T12:19:29;102846.78;;;15.03;59.19
62600;BME280;48671;48.922;2.346;2024-01-30T12:21:57;102862.44;;;15.08;59.11
62600;BME280;48671;48.922;2.346;2024-01-30T12:24:26;102843.50;;;14.95;59.12
62600;BME280;48671;48.922;2.346;2024-01-30T12:26:51;102844.31;;;14.97;59.49
62600;BME280;48671;48.922;2.346;2024-01-30T12:29:18;102853.84;;;14.99;59.15
62600;BME280;48671;48.922;2.346;2024-01-30T12:31:45;102872.13;;;15.04;59.02
62600;BME280;48671;48.922;2.346;2024-01-30T12:34:13;102853.84;;;15.01;58.95
62600;BME280;48671;48.922;2.346;2024-01-30T12:36:39;102840.16;;;14.88;58.89
62600;BME280;48671;48.922;2.346;2024-01-30T12:39:04;102851.50;;;14.87;58.35
62600;BME280;48671;48.922;2.346;2024-01-30T12:41:30;102842.06;;;14.80;58.71
62600;BME280;48671;48.922;2.346;2024-01-30T12:43:58;102873.06;;;15.02;58.92
62600;BME280;48671;48.922;2.346;2024-01-30T12:46:29;102868.59;;;15.04;58.33